LiveATC.Net - Listen to live air traffic control over the Internet!


ICAO: KTOC  IATA: TOC   Airport: Toccoa Airport-RG Letourneau Field
City: Toccoa   State/Province: Georgia
Country: United States   Continent: North America
KTOC METAR Weather: KTOC 081315Z AUTO 00000KT 10SM SCT033 OVC065 08/05 A3030 RMK AO2 T00840046
KTOC ADS-B Flight Tracking  (ADSBExchange)
KTOC Flight Activity (FlightAware)
KTOC Airport Info   (iFlightPlanner)
KTOC VFR Sectional Chart   (iFlightPlanner) 
KTOC IFR Low Altitude Chart   (iFlightPlanner) 
KTOC IFR High Altitude Chart   (iFlightPlanner) 

KTOC CTAF
Feed Status: UP   Listeners: 0
Listen in your browser - HTML5 player (in browser, HTML5)
Click here to listen with your own player (launches your MP3 player)
Archive Access: KTOC CTAF
FacilityFrequency
Toccoa CTAF122.800

NOTICE

Unauthorized use prohibited. See LiveATC.net Terms of Service


Airport/ARTCC Code
Frequency Search
(e.g., 124.400, 128.75)
Site-wide search
 


Browse Feeds
Top 50 Feeds
HF Oceanic Feeds
Coverage Map
Bad Weather Areas

LiveATC FAQ
Offer LiveATC feed
Contact LiveATC.net
Press Inquiries

LiveATC on iPhone
LiveATC on Android

LiveATC Mobile
(Mobile browser)

ATC Audio Archives
Interesting Recordings

LiveATC Forums


Home Page
About LiveATC.net


Terms of Use
Privacy Policy

AIRMETs/SIGMETs

FAA Airport Status
NAS Status
Arrival Demand


Server Software By:
Icecast.org
Liquidsoap